createdAt,value
2022-09-14T00:01:41.193Z,14.88
2022-09-14T00:04:19.402Z,14.84
2022-09-14T00:06:50.424Z,14.84
2022-09-14T00:09:24.817Z,14.77
2022-09-14T00:11:55.109Z,14.72
2022-09-14T00:14:24.930Z,14.74
2022-09-14T00:16:54.759Z,14.81
2022-09-14T00:19:26.982Z,14.78
2022-09-14T00:21:59.306Z,14.71
2022-09-14T00:24:33.759Z,14.78
2022-09-14T00:27:07.659Z,14.85
2022-09-14T00:29:38.941Z,14.92
2022-09-14T00:32:09.111Z,14.99
2022-09-14T00:34:38.876Z,15.06
2022-09-14T00:37:08.219Z,15.08
2022-09-14T00:39:39.234Z,15.10
2022-09-14T00:42:09.400Z,15.06
2022-09-14T00:44:39.031Z,15.06
2022-09-14T00:47:08.988Z,15.06
2022-09-14T00:49:41.377Z,15.00
2022-09-14T00:52:18.114Z,15.02
2022-09-14T00:54:53.476Z,14.99
2022-09-14T00:57:25.020Z,15.00
2022-09-14T00:59:55.981Z,15.05
2022-09-14T01:02:28.729Z,15.10
2022-09-14T01:04:59.214Z,15.10
2022-09-14T01:07:39.709Z,15.23
2022-09-14T01:10:42.070Z,15.23
2022-09-14T01:13:48.235Z,15.30
2022-09-14T01:16:32.590Z,15.33
2022-09-14T01:19:07.880Z,15.36
2022-09-14T01:21:42.408Z,15.36
2022-09-14T01:24:48.978Z,15.33
2022-09-14T01:27:37.032Z,15.32
2022-09-14T01:30:09.801Z,15.33
2022-09-14T01:33:01.715Z,15.35
2022-09-14T01:35:50.541Z,15.33
2022-09-14T01:38:49.959Z,15.25
2022-09-14T01:41:27.035Z,15.18
2022-09-14T01:44:06.757Z,15.09
2022-09-14T01:46:53.040Z,14.95
2022-09-14T01:49:34.801Z,14.85
2022-09-14T01:52:15.893Z,14.74
2022-09-14T01:54:57.256Z,14.67
2022-09-14T01:57:33.708Z,14.60
2022-09-14T02:00:10.876Z,14.54
2022-09-14T02:02:53.663Z,14.44
2022-09-14T02:05:37.245Z,14.33
2022-09-14T02:08:07.448Z,14.23
2022-09-14T02:10:37.491Z,14.05
2022-09-14T02:13:08.334Z,13.87
2022-09-14T02:15:39.245Z,13.80
2022-09-14T02:18:10.160Z,13.72
2022-09-14T02:20:51.617Z,13.62
2022-09-14T02:23:21.660Z,13.50
2022-09-14T02:25:51.416Z,13.45
2022-09-14T02:28:24.218Z,13.42
2022-09-14T02:31:24.818Z,13.35
2022-09-14T02:34:30.597Z,13.30
2022-09-14T02:37:07.081Z,13.25
2022-09-14T02:40:05.328Z,13.14
2022-09-14T02:42:48.556Z,13.17
2022-09-14T02:45:40.830Z,13.22
2022-09-14T02:48:32.295Z,13.31
2022-09-14T02:51:17.724Z,13.38
2022-09-14T02:53:57.363Z,13.47
2022-09-14T02:56:29.856Z,13.48
2022-09-14T02:58:59.890Z,13.57
2022-09-14T03:01:29.191Z,13.63
2022-09-14T03:03:59.215Z,13.68
2022-09-14T03:06:29.035Z,13.68
2022-09-14T03:08:58.721Z,13.73
2022-09-14T03:11:27.989Z,13.79
2022-09-14T03:13:57.658Z,13.82
2022-09-14T03:16:26.917Z,13.89
2022-09-14T03:18:56.606Z,13.92
2022-09-14T03:21:25.823Z,13.95
2022-09-14T03:23:56.468Z,14.05
2022-09-14T03:26:28.617Z,14.09
2022-09-14T03:29:00.264Z,14.17
2022-09-14T03:31:30.166Z,14.26
2022-09-14T03:34:02.176Z,14.31
2022-09-14T03:36:33.066Z,14.30
2022-09-14T03:39:03.153Z,14.30
2022-09-14T03:41:32.865Z,14.31
2022-09-14T03:44:02.985Z,14.33
2022-09-14T03:46:32.958Z,14.36
2022-09-14T03:49:02.816Z,14.45
2022-09-14T03:51:32.503Z,14.48
2022-09-14T03:54:02.214Z,14.48
2022-09-14T03:56:32.562Z,14.48
2022-09-14T03:59:02.234Z,14.38
2022-09-14T04:01:31.502Z,14.29
2022-09-14T04:04:01.869Z,14.17
2022-09-14T04:06:31.600Z,14.21
2022-09-14T04:09:01.278Z,14.24
2022-09-14T04:11:32.580Z,14.23
2022-09-14T04:14:04.825Z,14.27
2022-09-14T04:16:35.091Z,14.29
2022-09-14T04:19:05.343Z,14.37
2022-09-14T04:21:35.298Z,14.41
2022-09-14T04:24:15.075Z,14.47
2022-09-14T04:26:47.552Z,14.50
2022-09-14T04:29:17.511Z,14.52
2022-09-14T04:31:48.040Z,14.52
2022-09-14T04:34:17.776Z,14.51
2022-09-14T04:36:46.952Z,14.58
2022-09-14T04:39:16.691Z,14.56
2022-09-14T04:41:46.362Z,14.54
2022-09-14T04:44:15.645Z,14.54
2022-09-14T04:46:47.061Z,14.57
2022-09-14T04:49:19.874Z,14.57
2022-09-14T04:51:50.507Z,14.63
2022-09-14T04:54:20.265Z,14.60
2022-09-14T04:56:50.022Z,14.60
2022-09-14T04:59:20.210Z,14.60
2022-09-14T05:01:50.144Z,14.58
2022-09-14T05:04:19.914Z,14.60
2022-09-14T05:06:51.258Z,14.57
2022-09-14T05:09:21.278Z,14.60
2022-09-14T05:11:52.885Z,14.60
2022-09-14T05:14:22.843Z,14.65
2022-09-14T05:16:52.942Z,14.67
2022-09-14T05:19:22.604Z,14.67
2022-09-14T05:21:51.794Z,14.67
2022-09-14T05:24:21.557Z,14.69
2022-09-14T05:26:59.451Z,14.69
2022-09-14T05:29:30.980Z,14.69
2022-09-14T05:32:01.276Z,14.71
2022-09-14T05:34:30.925Z,14.65
2022-09-14T05:37:00.119Z,14.67
2022-09-14T05:39:30.347Z,14.72
2022-09-14T05:42:00.091Z,14.69
2022-09-14T05:44:29.735Z,14.68
2022-09-14T05:46:58.970Z,14.65
2022-09-14T05:49:28.553Z,14.58
2022-09-14T05:51:58.263Z,14.61
2022-09-14T05:54:27.921Z,14.56
2022-09-14T05:56:57.112Z,14.57
2022-09-14T05:59:27.063Z,14.51
2022-09-14T06:01:57.102Z,14.48
2022-09-14T06:04:27.376Z,14.50
2022-09-14T06:07:17.296Z,14.48
2022-09-14T06:09:47.420Z,14.47
2022-09-14T06:12:17.105Z,14.42
2022-09-14T06:14:46.768Z,14.42
2022-09-14T06:17:15.958Z,14.44
2022-09-14T06:19:45.914Z,14.41
2022-09-14T06:22:15.580Z,14.33
2022-09-14T06:24:45.685Z,14.27
2022-09-14T06:27:16.506Z,14.27
2022-09-14T06:29:46.282Z,14.30
2022-09-14T06:32:15.948Z,14.27
2022-09-14T06:34:45.138Z,14.33
2022-09-14T06:37:14.903Z,14.30
2022-09-14T06:39:44.578Z,14.26
2022-09-14T06:42:14.359Z,14.26
2022-09-14T06:44:44.111Z,14.24
2022-09-14T06:47:13.800Z,14.21
2022-09-14T06:49:43.127Z,14.23
2022-09-14T06:52:12.697Z,14.26
2022-09-14T06:54:41.893Z,14.24
2022-09-14T06:57:11.463Z,14.20
2022-09-14T06:59:41.646Z,14.24
2022-09-14T07:02:13.945Z,14.24
2022-09-14T07:04:44.339Z,14.31
2022-09-14T07:07:17.863Z,14.30
2022-09-14T07:09:48.435Z,14.30
2022-09-14T07:12:18.733Z,14.29
2022-09-14T07:14:48.399Z,14.27
2022-09-14T07:17:17.816Z,14.27
2022-09-14T07:19:47.469Z,14.23
2022-09-14T07:22:16.651Z,14.26
2022-09-14T07:24:46.211Z,14.24
2022-09-14T07:27:15.978Z,14.23
2022-09-14T07:29:45.716Z,14.24
2022-09-14T07:32:15.792Z,14.23
2022-09-14T07:34:45.560Z,14.20
2022-09-14T07:37:15.222Z,14.20
2022-09-14T07:39:44.417Z,14.23
2022-09-14T07:42:14.031Z,14.21
2022-09-14T07:44:43.256Z,14.20
2022-09-14T07:47:12.830Z,14.16
2022-09-14T07:49:42.170Z,14.19
2022-09-14T07:52:12.793Z,14.17
2022-09-14T07:54:43.422Z,14.19
2022-09-14T07:57:13.173Z,14.20
2022-09-14T07:59:42.397Z,14.16
2022-09-14T08:02:13.628Z,14.16
2022-09-14T08:04:43.965Z,14.14
2022-09-14T08:07:13.883Z,14.13
2022-09-14T08:09:43.252Z,14.16
2022-09-14T08:12:13.272Z,14.16
2022-09-14T08:14:42.643Z,14.16
2022-09-14T08:17:12.208Z,14.12
2022-09-14T08:19:42.394Z,14.16
2022-09-14T08:22:11.819Z,14.17
2022-09-14T08:24:41.629Z,14.23
2022-09-14T08:27:12.749Z,14.24
2022-09-14T08:29:42.556Z,14.21
2022-09-14T08:32:15.372Z,14.21
2022-09-14T08:34:45.200Z,14.24
2022-09-14T08:37:15.024Z,14.23
2022-09-14T08:39:50.935Z,14.23
2022-09-14T08:42:26.103Z,14.19
2022-09-14T08:45:00.566Z,14.17
2022-09-14T08:47:39.988Z,14.17
2022-09-14T08:50:16.283Z,14.19
2022-09-14T08:52:55.017Z,14.14
2022-09-14T08:55:30.443Z,14.16
2022-09-14T08:58:19.388Z,14.24
2022-09-14T09:00:53.625Z,14.23
2022-09-14T09:03:39.412Z,14.23
2022-09-14T09:06:26.257Z,14.24
2022-09-14T09:09:21.112Z,14.26
2022-09-14T09:11:54.115Z,14.24
2022-09-14T09:14:32.970Z,14.23
2022-09-14T09:17:07.277Z,14.24
2022-09-14T09:19:49.023Z,14.23
2022-09-14T09:22:23.635Z,14.23
2022-09-14T09:24:56.501Z,14.27
2022-09-14T09:27:27.518Z,14.27
2022-09-14T09:29:57.432Z,14.23
2022-09-14T09:32:30.563Z,14.26
2022-09-14T09:35:23.637Z,14.30
2022-09-14T09:38:17.468Z,14.27
2022-09-14T09:41:01.639Z,14.34
2022-09-14T09:43:49.066Z,14.31
2022-09-14T09:46:19.812Z,14.38
2022-09-14T09:48:49.859Z,14.41
2022-09-14T09:51:25.850Z,14.40
2022-09-14T09:53:58.537Z,14.42
2022-09-14T09:56:34.076Z,14.44
2022-09-14T09:59:05.056Z,14.48
2022-09-14T10:01:37.275Z,14.56
2022-09-14T10:04:20.272Z,14.61
2022-09-14T10:06:52.785Z,14.57
2022-09-14T10:09:25.857Z,14.57
2022-09-14T10:12:02.011Z,14.58
2022-09-14T10:14:35.032Z,14.57
2022-09-14T10:17:23.338Z,14.57
2022-09-14T10:19:55.567Z,14.51
2022-09-14T10:22:38.042Z,14.51
2022-09-14T10:25:19.418Z,14.51
2022-09-14T10:27:56.468Z,14.48
2022-09-14T10:30:28.308Z,14.47
2022-09-14T10:33:07.588Z,14.44
2022-09-14T10:35:47.104Z,14.51
2022-09-14T10:38:43.577Z,14.60
2022-09-14T10:41:34.833Z,14.78
2022-09-14T10:44:32.355Z,15.03
2022-09-14T10:47:11.527Z,15.29
2022-09-14T10:49:42.098Z,15.37
2022-09-14T10:52:21.150Z,15.29
2022-09-14T10:55:17.754Z,15.20
2022-09-14T10:58:01.057Z,15.12
2022-09-14T11:00:37.267Z,15.06
2022-09-14T11:03:36.351Z,15.03
2022-09-14T11:06:20.927Z,15.19
2022-09-14T11:09:03.729Z,15.36
2022-09-14T11:11:50.649Z,15.47
2022-09-14T11:14:26.771Z,15.49
2022-09-14T11:17:17.173Z,15.50
2022-09-14T11:19:59.559Z,15.60
2022-09-14T11:22:40.306Z,15.56
2022-09-14T11:25:34.605Z,15.73
2022-09-14T11:28:45.726Z,15.63
2022-09-14T11:31:29.370Z,15.80
2022-09-14T11:34:24.511Z,15.97
2022-09-14T11:37:05.098Z,16.22
2022-09-14T11:39:44.154Z,16.69
2022-09-14T11:42:47.326Z,17.10
2022-09-14T11:45:47.121Z,16.93
2022-09-14T11:48:42.743Z,16.67
2022-09-14T11:51:50.044Z,16.45
2022-09-14T11:54:22.761Z,16.28
2022-09-14T11:56:57.068Z,16.22
2022-09-14T11:59:42.565Z,15.94
2022-09-14T12:02:24.781Z,15.80
2022-09-14T12:05:10.343Z,15.71
2022-09-14T12:07:49.617Z,15.67
2022-09-14T12:10:22.383Z,15.68
2022-09-14T12:12:53.849Z,15.85
2022-09-14T12:15:35.733Z,16.33
2022-09-14T12:18:08.546Z,17.93
2022-09-14T12:20:50.477Z,17.41
2022-09-14T12:23:34.137Z,17.25
2022-09-14T12:26:10.608Z,17.14
2022-09-14T12:28:49.375Z,16.91
2022-09-14T12:31:34.000Z,17.07
2022-09-14T12:34:24.334Z,17.15
2022-09-14T12:36:54.727Z,17.24
2022-09-14T12:39:26.237Z,19.39
2022-09-14T12:41:56.430Z,20.28
2022-09-14T12:44:34.664Z,18.87
2022-09-14T12:47:26.080Z,19.85
2022-09-14T12:50:01.574Z,19.79
2022-09-14T12:52:43.454Z,19.58
2022-09-14T12:55:43.305Z,18.91
2022-09-14T12:58:39.074Z,17.76
2022-09-14T13:01:27.834Z,17.21
2022-09-14T13:03:59.420Z,17.00
2022-09-14T13:06:46.593Z,16.80
2022-09-14T13:09:25.700Z,16.77
2022-09-14T13:12:03.499Z,16.86
2022-09-14T13:14:48.963Z,17.04
2022-09-14T13:17:19.152Z,17.21
2022-09-14T13:20:07.705Z,17.38
2022-09-14T13:22:44.192Z,17.41
2022-09-14T13:25:39.543Z,19.06
2022-09-14T13:28:16.821Z,20.69
2022-09-14T13:30:57.102Z,21.35
2022-09-14T13:33:27.384Z,21.55
2022-09-14T13:36:02.611Z,21.48
2022-09-14T13:38:38.532Z,20.72
2022-09-14T13:41:15.031Z,20.63
2022-09-14T13:43:46.493Z,20.05
2022-09-14T13:46:20.238Z,20.39
2022-09-14T13:48:51.467Z,21.25
2022-09-14T13:51:28.533Z,21.88
2022-09-14T13:54:01.434Z,19.88
2022-09-14T13:56:36.203Z,18.36
2022-09-14T13:59:09.996Z,17.39
2022-09-14T14:02:01.057Z,17.00
2022-09-14T14:04:36.391Z,17.02
2022-09-14T14:07:15.067Z,17.39
2022-09-14T14:09:48.262Z,18.20
2022-09-14T14:12:41.097Z,19.13
2022-09-14T14:15:13.984Z,19.88
2022-09-14T14:17:44.280Z,20.09
2022-09-14T14:20:32.022Z,21.66
2022-09-14T14:23:26.350Z,21.93
2022-09-14T14:26:10.361Z,22.07
2022-09-14T14:28:42.842Z,21.14
2022-09-14T14:31:21.254Z,21.73
2022-09-14T14:33:54.576Z,23.37
2022-09-14T14:36:25.554Z,22.94
2022-09-14T14:38:55.649Z,22.47
2022-09-14T14:41:25.423Z,21.35
2022-09-14T14:43:55.153Z,20.77
2022-09-14T14:46:26.230Z,21.49
2022-09-14T14:48:57.301Z,21.49
2022-09-14T14:51:27.341Z,21.54
2022-09-14T14:53:57.359Z,22.17
2022-09-14T14:56:27.104Z,21.48
2022-09-14T14:59:00.135Z,21.11
2022-09-14T15:01:32.144Z,21.14
2022-09-14T15:04:01.912Z,20.69
2022-09-14T15:06:31.646Z,22.21
2022-09-14T15:09:02.265Z,23.19
2022-09-14T15:11:32.947Z,23.94
2022-09-14T15:14:02.862Z,22.14
2022-09-14T15:16:32.708Z,22.12
2022-09-14T15:19:02.437Z,22.30
2022-09-14T15:21:32.414Z,22.00
2022-09-14T15:24:02.485Z,23.40
2022-09-14T15:26:32.307Z,22.60
2022-09-14T15:29:02.579Z,22.67
2022-09-14T15:31:32.638Z,24.15
2022-09-14T15:34:03.112Z,24.97
2022-09-14T15:36:53.644Z,25.44
2022-09-14T15:39:25.964Z,24.98
2022-09-14T15:41:57.419Z,25.66
2022-09-14T15:44:27.731Z,25.39
2022-09-14T15:46:58.487Z,24.97
2022-09-14T15:49:29.256Z,23.49
2022-09-14T15:51:59.563Z,21.99
2022-09-14T15:54:38.224Z,21.28
2022-09-14T15:57:11.730Z,21.03
2022-09-14T15:59:41.901Z,22.92
2022-09-14T16:02:13.454Z,24.33
2022-09-14T16:04:43.542Z,23.61
2022-09-14T16:07:13.476Z,22.18
2022-09-14T16:09:43.952Z,21.31
2022-09-14T16:12:15.016Z,22.96
2022-09-14T16:14:44.911Z,23.84
2022-09-14T16:17:14.669Z,24.19
2022-09-14T16:19:44.436Z,23.74
2022-09-14T16:22:14.120Z,23.77
2022-09-14T16:24:44.893Z,23.96
2022-09-14T16:27:14.767Z,24.84
2022-09-14T16:29:44.463Z,25.58
2022-09-14T16:32:14.261Z,22.88
2022-09-14T16:34:43.965Z,23.71
2022-09-14T16:37:13.938Z,23.08
2022-09-14T16:39:44.226Z,24.04
2022-09-14T16:42:13.937Z,24.01
2022-09-14T16:44:43.650Z,22.36
2022-09-14T16:47:13.349Z,23.68
2022-09-14T16:49:43.103Z,24.40
2022-09-14T16:52:13.223Z,24.84
2022-09-14T16:54:42.961Z,25.49
2022-09-14T16:57:13.594Z,25.30
2022-09-14T16:59:43.427Z,25.59
2022-09-14T17:02:13.279Z,25.97
2022-09-14T17:04:42.979Z,26.84
2022-09-14T17:07:12.740Z,26.43
2022-09-14T17:09:42.562Z,24.59
2022-09-14T17:12:12.702Z,25.08
2022-09-14T17:14:43.414Z,26.03
2022-09-14T17:17:13.296Z,23.84
2022-09-14T17:19:43.814Z,23.16
2022-09-14T17:22:14.195Z,24.83
2022-09-14T17:24:44.860Z,25.48
2022-09-14T17:27:14.522Z,25.97
2022-09-14T17:29:44.224Z,25.46
2022-09-14T17:32:15.036Z,24.82
2022-09-14T17:34:45.496Z,25.51
2022-09-14T17:37:15.174Z,25.99
2022-09-14T17:39:45.144Z,25.81
2022-09-14T17:42:14.849Z,25.57
2022-09-14T17:44:46.209Z,24.88
2022-09-14T17:47:16.525Z,25.04
2022-09-14T17:49:46.234Z,24.98
2022-09-14T17:52:16.118Z,24.93
2022-09-14T17:54:45.789Z,24.91
2022-09-14T17:57:15.468Z,25.30
2022-09-14T17:59:45.121Z,25.23
2022-09-14T18:02:14.934Z,25.42
2022-09-14T18:04:48.600Z,25.02
2022-09-14T18:07:18.814Z,24.88
2022-09-14T18:09:48.493Z,25.15
2022-09-14T18:12:18.954Z,24.93
2022-09-14T18:14:49.118Z,25.17
2022-09-14T18:17:18.813Z,24.82
2022-09-14T18:19:48.579Z,24.56
2022-09-14T18:22:18.976Z,24.49
2022-09-14T18:24:48.920Z,24.83
2022-09-14T18:27:18.836Z,24.88
2022-09-14T18:29:48.669Z,24.57
2022-09-14T18:32:18.467Z,24.90
2022-09-14T18:34:48.200Z,26.29
2022-09-14T18:37:17.884Z,26.55
2022-09-14T18:39:47.829Z,27.90
2022-09-14T18:42:17.555Z,28.42
2022-09-14T18:44:47.256Z,27.87
2022-09-14T18:47:20.011Z,27.45
2022-09-14T18:49:51.257Z,28.18
2022-09-14T18:52:21.278Z,28.70
2022-09-14T18:54:50.984Z,28.80
2022-09-14T18:57:21.082Z,28.73
2022-09-14T18:59:50.802Z,28.31
2022-09-14T19:02:20.804Z,28.08
2022-09-14T19:04:50.616Z,27.25
2022-09-14T19:07:20.269Z,27.88
2022-09-14T19:09:49.962Z,28.07
2022-09-14T19:12:19.976Z,28.51
2022-09-14T19:14:49.657Z,28.42
2022-09-14T19:17:19.362Z,28.22
2022-09-14T19:19:49.283Z,25.97
2022-09-14T19:22:18.950Z,22.98
2022-09-14T19:24:48.634Z,21.90
2022-09-14T19:27:18.802Z,21.15
2022-09-14T19:29:48.899Z,20.96
2022-09-14T19:32:19.703Z,21.04
2022-09-14T19:34:50.444Z,20.74
2022-09-14T19:37:20.135Z,20.98
2022-09-14T19:39:49.892Z,20.96
2022-09-14T19:42:22.657Z,22.36
2022-09-14T19:44:54.429Z,25.15
2022-09-14T19:47:24.441Z,25.89
2022-09-14T19:49:54.165Z,25.07
2022-09-14T19:52:24.213Z,21.20
2022-09-14T19:54:53.880Z,19.92
2022-09-14T19:57:23.590Z,19.08
2022-09-14T19:59:53.274Z,18.98
2022-09-14T20:02:23.037Z,18.82
2022-09-14T20:04:53.019Z,18.64
2022-09-14T20:07:22.700Z,18.48
2022-09-14T20:09:55.239Z,18.38
2022-09-14T20:12:26.291Z,18.43
2022-09-14T20:14:56.564Z,18.47
2022-09-14T20:17:26.362Z,18.50
2022-09-14T20:19:56.194Z,18.61
2022-09-14T20:22:25.916Z,18.65
2022-09-14T20:24:55.619Z,18.88
2022-09-14T20:27:25.500Z,18.82
2022-09-14T20:29:55.172Z,18.87
2022-09-14T20:32:26.246Z,19.77
2022-09-14T20:34:56.139Z,19.24
2022-09-14T20:37:25.859Z,19.50
2022-09-14T20:39:55.900Z,19.58
2022-09-14T20:42:25.625Z,19.60
2022-09-14T20:44:55.354Z,18.89
2022-09-14T20:47:25.953Z,18.58
2022-09-14T20:49:55.970Z,18.41
2022-09-14T20:52:25.969Z,18.29
2022-09-14T20:54:55.660Z,18.20
2022-09-14T20:57:25.420Z,18.09
2022-09-14T20:59:55.472Z,17.97
2022-09-14T21:02:25.170Z,17.83
2022-09-14T21:04:55.776Z,17.71
2022-09-14T21:07:27.321Z,17.59
2022-09-14T21:09:58.117Z,17.39
2022-09-14T21:12:28.382Z,17.25
2022-09-14T21:14:58.394Z,17.10
2022-09-14T21:17:28.078Z,17.00
2022-09-14T21:19:57.405Z,16.90
2022-09-14T21:22:26.988Z,16.79
2022-09-14T21:24:56.737Z,16.69
2022-09-14T21:27:26.737Z,16.65
2022-09-14T21:29:56.398Z,16.59
2022-09-14T21:32:25.598Z,16.59
2022-09-14T21:34:55.988Z,16.60
2022-09-14T21:37:27.685Z,16.60
2022-09-14T21:39:59.075Z,16.52
2022-09-14T21:42:31.014Z,16.41
2022-09-14T21:45:00.880Z,16.33
2022-09-14T21:47:30.098Z,16.33
2022-09-14T21:49:59.957Z,16.38
2022-09-14T21:52:29.713Z,16.36
2022-09-14T21:54:59.759Z,16.30
2022-09-14T21:57:29.896Z,16.33
2022-09-14T21:59:59.650Z,16.33
2022-09-14T22:02:29.603Z,16.28
2022-09-14T22:04:59.542Z,16.32
2022-09-14T22:07:30.240Z,16.33
2022-09-14T22:10:00.611Z,16.38
2022-09-14T22:12:32.106Z,16.35
2022-09-14T22:15:02.193Z,16.41
2022-09-14T22:17:33.034Z,16.42
2022-09-14T22:20:03.374Z,16.45
2022-09-14T22:22:33.314Z,16.45
2022-09-14T22:25:03.101Z,16.39
2022-09-14T22:27:33.138Z,16.39
2022-09-14T22:30:02.865Z,16.41
2022-09-14T22:32:32.693Z,16.41
2022-09-14T22:35:02.405Z,16.42
2022-09-14T22:37:32.111Z,16.39
2022-09-14T22:40:01.794Z,16.41
2022-09-14T22:42:32.834Z,16.44
2022-09-14T22:45:02.506Z,16.44
2022-09-14T22:47:32.176Z,16.36
2022-09-14T22:50:01.409Z,16.38
2022-09-14T22:52:30.988Z,16.35
2022-09-14T22:55:00.240Z,16.33
2022-09-14T22:57:29.801Z,16.35
2022-09-14T23:00:00.905Z,16.39
2022-09-14T23:02:31.081Z,16.39
2022-09-14T23:05:00.974Z,16.39
2022-09-14T23:07:32.131Z,16.42
2022-09-14T23:10:02.428Z,16.39
2022-09-14T23:12:32.124Z,16.35
2022-09-14T23:15:01.423Z,16.36
2022-09-14T23:17:31.080Z,16.33
2022-09-14T23:20:00.756Z,16.33
2022-09-14T23:22:30.024Z,16.33
2022-09-14T23:24:59.612Z,16.35
2022-09-14T23:27:29.783Z,16.29
2022-09-14T23:30:02.308Z,16.25
2022-09-14T23:32:33.006Z,16.22
2022-09-14T23:35:03.037Z,16.19
2022-09-14T23:37:32.716Z,16.14
2022-09-14T23:40:02.087Z,16.12
2022-09-14T23:42:32.419Z,16.08
2022-09-14T23:45:03.648Z,16.01
2022-09-14T23:47:33.634Z,16.00
2022-09-14T23:50:03.669Z,16.00
2022-09-14T23:52:33.578Z,15.98
2022-09-14T23:55:03.351Z,15.98
2022-09-14T23:57:33.285Z,15.93
